sensor_id;sensor_type;location;lat;lon;timestamp;temperature;humidity
32728;DHT22;55292;51.844;19.246;2022-09-09T00:03:27;13.20;99.90
32728;DHT22;55292;51.844;19.246;2022-09-09T00:14:00;13.10;99.90
32728;DHT22;55292;51.844;19.246;2022-09-09T00:24:37;13.10;99.90
32728;DHT22;55292;51.844;19.246;2022-09-09T00:30:12;13.10;99.90
32728;DHT22;55292;51.844;19.246;2022-09-09T00:35:29;13.10;99.90
32728;DHT22;55292;51.844;19.246;2022-09-09T00:40:34;13.10;99.90
32728;DHT22;55292;51.844;19.246;2022-09-09T00:51:33;13.10;99.90
32728;DHT22;55292;51.844;19.246;2022-09-09T00:56:46;13.10;99.90
32728;DHT22;55292;51.844;19.246;2022-09-09T01:01:50;13.10;99.90
32728;DHT22;55292;51.844;19.246;2022-09-09T01:07:01;13.10;99.90
32728;DHT22;55292;51.844;19.246;2022-09-09T01:12:16;13.00;99.90
32728;DHT22;55292;51.844;19.246;2022-09-09T01:17:31;12.90;99.90
32728;DHT22;55292;51.844;19.246;2022-09-09T01:28:17;13.00;99.90
32728;DHT22;55292;51.844;19.246;2022-09-09T01:33:22;13.00;99.90
32728;DHT22;55292;51.844;19.246;2022-09-09T01:38:25;13.00;99.90
32728;DHT22;55292;51.844;19.246;2022-09-09T01:43:29;13.00;99.90
32728;DHT22;55292;51.844;19.246;2022-09-09T01:48:33;13.10;99.90
32728;DHT22;55292;51.844;19.246;2022-09-09T01:53:40;13.10;99.90
32728;DHT22;55292;51.844;19.246;2022-09-09T01:59:17;13.20;99.90
32728;DHT22;55292;51.844;19.246;2022-09-09T02:04:51;13.20;99.90
32728;DHT22;55292;51.844;19.246;2022-09-09T02:10:19;13.20;99.90
32728;DHT22;55292;51.844;19.246;2022-09-09T02:20:45;13.20;99.90
32728;DHT22;55292;51.844;19.246;2022-09-09T02:25:49;13.20;99.90
32728;DHT22;55292;51.844;19.246;2022-09-09T02:30:57;13.20;99.90
32728;DHT22;55292;51.844;19.246;2022-09-09T02:36:09;13.20;99.90
32728;DHT22;55292;51.844;19.246;2022-09-09T02:41:21;13.20;99.90
32728;DHT22;55292;51.844;19.246;2022-09-09T02:52:04;13.20;99.90
32728;DHT22;55292;51.844;19.246;2022-09-09T02:57:30;13.30;99.90
32728;DHT22;55292;51.844;19.246;2022-09-09T03:02:34;13.30;99.90
32728;DHT22;55292;51.844;19.246;2022-09-09T03:07:40;13.30;99.90
32728;DHT22;55292;51.844;19.246;2022-09-09T03:12:44;13.30;99.90
32728;DHT22;55292;51.844;19.246;2022-09-09T03:17:48;13.20;99.90
32728;DHT22;55292;51.844;19.246;2022-09-09T03:22:50;13.20;99.90
32728;DHT22;55292;51.844;19.246;2022-09-09T03:27:54;13.20;99.90
32728;DHT22;55292;51.844;19.246;2022-09-09T03:32:58;13.20;99.90
32728;DHT22;55292;51.844;19.246;2022-09-09T03:38:05;13.30;99.90
32728;DHT22;55292;51.844;19.246;2022-09-09T03:43:10;13.20;99.90
32728;DHT22;55292;51.844;19.246;2022-09-09T03:48:14;13.20;99.90
32728;DHT22;55292;51.844;19.246;2022-09-09T03:53:19;13.30;99.90
32728;DHT22;55292;51.844;19.246;2022-09-09T03:58:23;13.30;99.90
32728;DHT22;55292;51.844;19.246;2022-09-09T04:03:33;13.40;99.90
32728;DHT22;55292;51.844;19.246;2022-09-09T04:08:36;13.40;99.90
32728;DHT22;55292;51.844;19.246;2022-09-09T04:13:41;13.40;99.90
32728;DHT22;55292;51.844;19.246;2022-09-09T04:18:46;13.50;99.90
32728;DHT22;55292;51.844;19.246;2022-09-09T04:23:51;13.50;99.90
32728;DHT22;55292;51.844;19.246;2022-09-09T04:28:54;13.60;99.90
32728;DHT22;55292;51.844;19.246;2022-09-09T04:33:58;13.70;99.90
32728;DHT22;55292;51.844;19.246;2022-09-09T04:39:04;13.80;99.90
32728;DHT22;55292;51.844;19.246;2022-09-09T04:44:07;13.80;99.90
32728;DHT22;55292;51.844;19.246;2022-09-09T04:49:10;13.90;99.90
32728;DHT22;55292;51.844;19.246;2022-09-09T04:54:17;14.00;99.90
32728;DHT22;55292;51.844;19.246;2022-09-09T04:59:21;15.10;99.90
32728;DHT22;55292;51.844;19.246;2022-09-09T05:04:28;14.30;99.90
32728;DHT22;55292;51.844;19.246;2022-09-09T05:09:31;14.40;99.90
32728;DHT22;55292;51.844;19.246;2022-09-09T05:14:34;14.50;99.90
32728;DHT22;55292;51.844;19.246;2022-09-09T05:19:41;14.70;99.90
32728;DHT22;55292;51.844;19.246;2022-09-09T05:24:45;14.70;99.90
32728;DHT22;55292;51.844;19.246;2022-09-09T05:29:48;14.90;99.90
32728;DHT22;55292;51.844;19.246;2022-09-09T05:34:51;14.90;99.90
32728;DHT22;55292;51.844;19.246;2022-09-09T05:39:54;15.10;99.90
32728;DHT22;55292;51.844;19.246;2022-09-09T05:44:57;15.10;99.90
32728;DHT22;55292;51.844;19.246;2022-09-09T05:50:01;15.40;99.90
32728;DHT22;55292;51.844;19.246;2022-09-09T05:55:04;15.40;99.90
32728;DHT22;55292;51.844;19.246;2022-09-09T06:00:07;15.50;99.90
32728;DHT22;55292;51.844;19.246;2022-09-09T06:05:14;15.50;99.90
32728;DHT22;55292;51.844;19.246;2022-09-09T06:10:17;15.60;99.90
32728;DHT22;55292;51.844;19.246;2022-09-09T06:15:21;15.70;99.90
32728;DHT22;55292;51.844;19.246;2022-09-09T06:20:24;15.70;99.90
32728;DHT22;55292;51.844;19.246;2022-09-09T06:25:27;15.80;99.90
32728;DHT22;55292;51.844;19.246;2022-09-09T06:30:30;15.90;99.90
32728;DHT22;55292;51.844;19.246;2022-09-09T06:35:33;15.90;99.90
32728;DHT22;55292;51.844;19.246;2022-09-09T06:40:35;16.20;99.90
32728;DHT22;55292;51.844;19.246;2022-09-09T06:45:38;16.30;99.90
32728;DHT22;55292;51.844;19.246;2022-09-09T06:50:42;16.30;99.90
32728;DHT22;55292;51.844;19.246;2022-09-09T06:55:46;16.50;99.90
32728;DHT22;55292;51.844;19.246;2022-09-09T07:00:48;16.60;99.90
32728;DHT22;55292;51.844;19.246;2022-09-09T07:05:56;19.50;99.90
32728;DHT22;55292;51.844;19.246;2022-09-09T07:11:05;17.00;99.90
32728;DHT22;55292;51.844;19.246;2022-09-09T07:16:17;17.00;99.90
32728;DHT22;55292;51.844;19.246;2022-09-09T07:21:20;17.00;99.90
32728;DHT22;55292;51.844;19.246;2022-09-09T07:26:26;17.00;99.90
32728;DHT22;55292;51.844;19.246;2022-09-09T07:31:33;17.10;99.90
32728;DHT22;55292;51.844;19.246;2022-09-09T07:36:40;17.30;99.90
32728;DHT22;55292;51.844;19.246;2022-09-09T07:41:48;17.30;99.90
32728;DHT22;55292;51.844;19.246;2022-09-09T07:46:54;17.50;99.90
32728;DHT22;55292;51.844;19.246;2022-09-09T07:52:01;17.40;99.90
32728;DHT22;55292;51.844;19.246;2022-09-09T07:57:06;17.50;99.90
32728;DHT22;55292;51.844;19.246;2022-09-09T08:02:10;17.60;99.90
32728;DHT22;55292;51.844;19.246;2022-09-09T08:07:13;17.70;99.90
32728;DHT22;55292;51.844;19.246;2022-09-09T08:12:24;18.40;99.90
32728;DHT22;55292;51.844;19.246;2022-09-09T08:17:27;18.90;99.90
32728;DHT22;55292;51.844;19.246;2022-09-09T08:22:32;19.20;99.90
32728;DHT22;55292;51.844;19.246;2022-09-09T08:27:34;19.20;99.90
32728;DHT22;55292;51.844;19.246;2022-09-09T08:32:38;19.20;99.90
32728;DHT22;55292;51.844;19.246;2022-09-09T08:37:45;19.40;99.90
32728;DHT22;55292;51.844;19.246;2022-09-09T08:42:55;19.30;99.90
32728;DHT22;55292;51.844;19.246;2022-09-09T08:48:24;18.90;99.90
32728;DHT22;55292;51.844;19.246;2022-09-09T08:53:40;18.50;99.90
32728;DHT22;55292;51.844;19.246;2022-09-09T08:58:50;18.20;99.90
32728;DHT22;55292;51.844;19.246;2022-09-09T09:14:43;19.40;99.90
32728;DHT22;55292;51.844;19.246;2022-09-09T09:19:48;19.30;99.90
32728;DHT22;55292;51.844;19.246;2022-09-09T09:24:56;19.60;99.90
32728;DHT22;55292;51.844;19.246;2022-09-09T09:30:19;19.90;99.90
32728;DHT22;55292;51.844;19.246;2022-09-09T09:35:37;20.70;99.90
32728;DHT22;55292;51.844;19.246;2022-09-09T09:40:57;20.50;99.90
32728;DHT22;55292;51.844;19.246;2022-09-09T09:46:04;20.10;99.90
32728;DHT22;55292;51.844;19.246;2022-09-09T09:51:22;18.90;99.90
32728;DHT22;55292;51.844;19.246;2022-09-09T09:56:27;19.00;99.90
32728;DHT22;55292;51.844;19.246;2022-09-09T10:01:37;19.50;99.90
32728;DHT22;55292;51.844;19.246;2022-09-09T10:06:44;20.60;99.90
32728;DHT22;55292;51.844;19.246;2022-09-09T10:22:51;21.50;99.90
32728;DHT22;55292;51.844;19.246;2022-09-09T10:33:33;20.00;99.90
32728;DHT22;55292;51.844;19.246;2022-09-09T10:38:47;20.00;99.90
32728;DHT22;55292;51.844;19.246;2022-09-09T10:54:46;19.50;99.90
32728;DHT22;55292;51.844;19.246;2022-09-09T10:59:55;19.50;99.90
32728;DHT22;55292;51.844;19.246;2022-09-09T11:05:20;20.30;99.90
32728;DHT22;55292;51.844;19.246;2022-09-09T11:15:49;20.70;99.90
32728;DHT22;55292;51.844;19.246;2022-09-09T11:20:59;21.00;99.90
32728;DHT22;55292;51.844;19.246;2022-09-09T11:26:04;21.00;99.90
32728;DHT22;55292;51.844;19.246;2022-09-09T11:36:49;21.40;99.90
32728;DHT22;55292;51.844;19.246;2022-09-09T11:42:19;21.60;99.90
32728;DHT22;55292;51.844;19.246;2022-09-09T11:52:45;22.10;99.90
32728;DHT22;55292;51.844;19.246;2022-09-09T11:58:00;22.00;99.90
32728;DHT22;55292;51.844;19.246;2022-09-09T12:08:35;22.30;99.90
32728;DHT22;55292;51.844;19.246;2022-09-09T12:13:39;22.50;99.90
32728;DHT22;55292;51.844;19.246;2022-09-09T12:18:44;22.00;99.90
32728;DHT22;55292;51.844;19.246;2022-09-09T12:23:55;21.70;99.90
32728;DHT22;55292;51.844;19.246;2022-09-09T12:39:54;22.20;99.90
32728;DHT22;55292;51.844;19.246;2022-09-09T12:44:59;22.40;99.90
32728;DHT22;55292;51.844;19.246;2022-09-09T12:50:02;22.20;99.90
32728;DHT22;55292;51.844;19.246;2022-09-09T12:55:06;22.00;99.90
32728;DHT22;55292;51.844;19.246;2022-09-09T13:00:15;22.40;99.90
32728;DHT22;55292;51.844;19.246;2022-09-09T13:05:23;23.10;99.90
32728;DHT22;55292;51.844;19.246;2022-09-09T13:10:28;23.30;99.90
32728;DHT22;55292;51.844;19.246;2022-09-09T13:15:52;22.90;99.90
32728;DHT22;55292;51.844;19.246;2022-09-09T13:20:57;23.00;99.90
32728;DHT22;55292;51.844;19.246;2022-09-09T13:26:05;23.10;99.90
32728;DHT22;55292;51.844;19.246;2022-09-09T13:31:42;23.20;99.90
32728;DHT22;55292;51.844;19.246;2022-09-09T13:36:47;23.50;99.90
32728;DHT22;55292;51.844;19.246;2022-09-09T13:41:51;22.80;99.90
32728;DHT22;55292;51.844;19.246;2022-09-09T13:52:13;23.10;99.90
32728;DHT22;55292;51.844;19.246;2022-09-09T13:57:19;23.30;99.90
32728;DHT22;55292;51.844;19.246;2022-09-09T14:02:22;22.70;99.90
32728;DHT22;55292;51.844;19.246;2022-09-09T14:07:25;22.70;99.90
32728;DHT22;55292;51.844;19.246;2022-09-09T14:12:28;23.10;99.90
32728;DHT22;55292;51.844;19.246;2022-09-09T14:17:31;22.80;99.90
32728;DHT22;55292;51.844;19.246;2022-09-09T14:22:35;22.30;99.90
32728;DHT22;55292;51.844;19.246;2022-09-09T14:27:37;22.10;99.90
32728;DHT22;55292;51.844;19.246;2022-09-09T14:32:41;21.90;99.90
32728;DHT22;55292;51.844;19.246;2022-09-09T14:37:44;22.00;99.90
32728;DHT22;55292;51.844;19.246;2022-09-09T14:42:46;21.80;99.90
32728;DHT22;55292;51.844;19.246;2022-09-09T14:47:49;21.50;99.90
32728;DHT22;55292;51.844;19.246;2022-09-09T14:52:52;21.30;99.90
32728;DHT22;55292;51.844;19.246;2022-09-09T14:57:54;21.50;99.90
32728;DHT22;55292;51.844;19.246;2022-09-09T15:02:57;21.70;99.90
32728;DHT22;55292;51.844;19.246;2022-09-09T15:08:00;21.40;99.90
32728;DHT22;55292;51.844;19.246;2022-09-09T15:13:03;21.10;99.90
32728;DHT22;55292;51.844;19.246;2022-09-09T15:18:05;21.20;99.90
32728;DHT22;55292;51.844;19.246;2022-09-09T15:23:08;21.10;99.90
32728;DHT22;55292;51.844;19.246;2022-09-09T15:28:11;20.90;99.90
32728;DHT22;55292;51.844;19.246;2022-09-09T15:33:14;20.90;99.90
32728;DHT22;55292;51.844;19.246;2022-09-09T15:38:17;20.80;99.90
32728;DHT22;55292;51.844;19.246;2022-09-09T15:43:21;20.70;99.90
32728;DHT22;55292;51.844;19.246;2022-09-09T15:48:30;20.60;99.90
32728;DHT22;55292;51.844;19.246;2022-09-09T15:53:39;20.60;99.90
32728;DHT22;55292;51.844;19.246;2022-09-09T15:58:42;20.40;99.90
32728;DHT22;55292;51.844;19.246;2022-09-09T16:03:46;20.30;99.90
32728;DHT22;55292;51.844;19.246;2022-09-09T16:08:50;20.10;99.90
32728;DHT22;55292;51.844;19.246;2022-09-09T16:13:54;20.00;99.90
32728;DHT22;55292;51.844;19.246;2022-09-09T16:18:59;19.90;99.90
32728;DHT22;55292;51.844;19.246;2022-09-09T16:24:03;19.80;99.90
32728;DHT22;55292;51.844;19.246;2022-09-09T16:29:06;19.70;99.90
32728;DHT22;55292;51.844;19.246;2022-09-09T16:34:09;19.70;99.90
32728;DHT22;55292;51.844;19.246;2022-09-09T16:39:17;19.60;99.90
32728;DHT22;55292;51.844;19.246;2022-09-09T16:44:21;19.50;99.90
32728;DHT22;55292;51.844;19.246;2022-09-09T16:49:23;19.30;99.90
32728;DHT22;55292;51.844;19.246;2022-09-09T16:54:26;18.90;99.90
32728;DHT22;55292;51.844;19.246;2022-09-09T16:59:29;18.60;99.90
32728;DHT22;55292;51.844;19.246;2022-09-09T17:04:32;18.40;99.90
32728;DHT22;55292;51.844;19.246;2022-09-09T17:09:35;18.40;99.90
32728;DHT22;55292;51.844;19.246;2022-09-09T17:14:38;18.20;99.90
32728;DHT22;55292;51.844;19.246;2022-09-09T17:19:40;18.00;99.90
32728;DHT22;55292;51.844;19.246;2022-09-09T17:24:43;18.00;99.90
32728;DHT22;55292;51.844;19.246;2022-09-09T17:29:46;17.90;99.90
32728;DHT22;55292;51.844;19.246;2022-09-09T17:34:49;17.80;99.90
32728;DHT22;55292;51.844;19.246;2022-09-09T17:39:51;17.70;99.90
32728;DHT22;55292;51.844;19.246;2022-09-09T17:44:54;17.60;99.90
32728;DHT22;55292;51.844;19.246;2022-09-09T17:49:57;17.70;99.90
32728;DHT22;55292;51.844;19.246;2022-09-09T17:54:59;17.60;99.90
32728;DHT22;55292;51.844;19.246;2022-09-09T18:00:05;17.40;99.90
32728;DHT22;55292;51.844;19.246;2022-09-09T18:05:13;17.20;99.90
32728;DHT22;55292;51.844;19.246;2022-09-09T18:10:16;17.30;99.90
32728;DHT22;55292;51.844;19.246;2022-09-09T18:15:19;17.30;99.90
32728;DHT22;55292;51.844;19.246;2022-09-09T18:20:42;17.20;99.90
32728;DHT22;55292;51.844;19.246;2022-09-09T18:25:46;16.90;99.90
32728;DHT22;55292;51.844;19.246;2022-09-09T18:30:48;16.70;99.90
32728;DHT22;55292;51.844;19.246;2022-09-09T18:35:51;16.60;99.90
32728;DHT22;55292;51.844;19.246;2022-09-09T18:40:54;16.70;99.90
32728;DHT22;55292;51.844;19.246;2022-09-09T18:46:03;16.70;99.90
32728;DHT22;55292;51.844;19.246;2022-09-09T18:51:07;16.70;99.90
32728;DHT22;55292;51.844;19.246;2022-09-09T18:56:12;16.50;99.90
32728;DHT22;55292;51.844;19.246;2022-09-09T19:01:14;16.60;99.90
32728;DHT22;55292;51.844;19.246;2022-09-09T19:06:20;16.60;99.90
32728;DHT22;55292;51.844;19.246;2022-09-09T19:11:26;16.30;99.90
32728;DHT22;55292;51.844;19.246;2022-09-09T19:16:31;16.30;99.90
32728;DHT22;55292;51.844;19.246;2022-09-09T19:21:36;16.10;99.90
32728;DHT22;55292;51.844;19.246;2022-09-09T19:26:42;16.00;99.90
32728;DHT22;55292;51.844;19.246;2022-09-09T19:31:46;15.90;99.90
32728;DHT22;55292;51.844;19.246;2022-09-09T19:37:08;15.80;99.90
32728;DHT22;55292;51.844;19.246;2022-09-09T19:42:11;15.70;99.90
32728;DHT22;55292;51.844;19.246;2022-09-09T19:47:13;15.70;99.90
32728;DHT22;55292;51.844;19.246;2022-09-09T19:52:17;15.60;99.90
32728;DHT22;55292;51.844;19.246;2022-09-09T19:57:20;15.50;99.90
32728;DHT22;55292;51.844;19.246;2022-09-09T20:02:23;15.50;99.90
32728;DHT22;55292;51.844;19.246;2022-09-09T20:07:26;15.30;99.90
32728;DHT22;55292;51.844;19.246;2022-09-09T20:12:29;15.30;99.90
32728;DHT22;55292;51.844;19.246;2022-09-09T20:17:31;15.20;99.90
32728;DHT22;55292;51.844;19.246;2022-09-09T20:22:34;15.20;99.90
32728;DHT22;55292;51.844;19.246;2022-09-09T20:27:37;15.20;99.90
32728;DHT22;55292;51.844;19.246;2022-09-09T20:32:40;15.30;99.90
32728;DHT22;55292;51.844;19.246;2022-09-09T20:37:43;15.20;99.90
32728;DHT22;55292;51.844;19.246;2022-09-09T20:42:46;15.10;99.90
32728;DHT22;55292;51.844;19.246;2022-09-09T20:47:48;15.00;99.90
32728;DHT22;55292;51.844;19.246;2022-09-09T20:52:51;14.90;99.90
32728;DHT22;55292;51.844;19.246;2022-09-09T20:57:54;14.90;99.90
32728;DHT22;55292;51.844;19.246;2022-09-09T21:02:59;14.90;99.90
32728;DHT22;55292;51.844;19.246;2022-09-09T21:08:03;14.70;99.90
32728;DHT22;55292;51.844;19.246;2022-09-09T21:13:06;14.70;99.90
32728;DHT22;55292;51.844;19.246;2022-09-09T21:18:09;14.70;99.90
32728;DHT22;55292;51.844;19.246;2022-09-09T21:23:13;14.70;99.90
32728;DHT22;55292;51.844;19.246;2022-09-09T21:28:16;14.50;99.90
32728;DHT22;55292;51.844;19.246;2022-09-09T21:33:20;14.40;99.90
32728;DHT22;55292;51.844;19.246;2022-09-09T21:38:23;14.30;99.90
32728;DHT22;55292;51.844;19.246;2022-09-09T21:43:26;14.30;99.90
32728;DHT22;55292;51.844;19.246;2022-09-09T21:48:29;14.30;99.90
32728;DHT22;55292;51.844;19.246;2022-09-09T21:53:33;14.30;99.90
32728;DHT22;55292;51.844;19.246;2022-09-09T21:58:36;14.10;99.90
32728;DHT22;55292;51.844;19.246;2022-09-09T22:03:39;14.20;99.90
32728;DHT22;55292;51.844;19.246;2022-09-09T22:08:44;14.10;99.90
32728;DHT22;55292;51.844;19.246;2022-09-09T22:13:47;14.10;99.90
32728;DHT22;55292;51.844;19.246;2022-09-09T22:18:52;14.10;99.90
32728;DHT22;55292;51.844;19.246;2022-09-09T22:23:59;14.20;99.90
32728;DHT22;55292;51.844;19.246;2022-09-09T22:29:03;14.10;99.90
32728;DHT22;55292;51.844;19.246;2022-09-09T22:34:06;14.10;99.90
32728;DHT22;55292;51.844;19.246;2022-09-09T22:39:09;14.10;99.90
32728;DHT22;55292;51.844;19.246;2022-09-09T22:44:11;14.20;99.90
32728;DHT22;55292;51.844;19.246;2022-09-09T22:49:14;14.20;99.90
32728;DHT22;55292;51.844;19.246;2022-09-09T22:54:16;14.30;99.90
32728;DHT22;55292;51.844;19.246;2022-09-09T22:59:23;14.40;99.90
32728;DHT22;55292;51.844;19.246;2022-09-09T23:04:25;14.30;99.90
32728;DHT22;55292;51.844;19.246;2022-09-09T23:09:28;14.40;99.90
32728;DHT22;55292;51.844;19.246;2022-09-09T23:14:31;14.50;99.90
32728;DHT22;55292;51.844;19.246;2022-09-09T23:19:34;14.40;99.90
32728;DHT22;55292;51.844;19.246;2022-09-09T23:24:38;14.50;99.90
32728;DHT22;55292;51.844;19.246;2022-09-09T23:29:41;14.40;99.90
32728;DHT22;55292;51.844;19.246;2022-09-09T23:34:43;14.30;99.90
32728;DHT22;55292;51.844;19.246;2022-09-09T23:39:48;14.20;99.90
32728;DHT22;55292;51.844;19.246;2022-09-09T23:44:51;14.30;99.90
32728;DHT22;55292;51.844;19.246;2022-09-09T23:49:54;14.30;99.90
32728;DHT22;55292;51.844;19.246;2022-09-09T23:54:57;14.30;99.90
